createdAt,value
2022-08-01T00:00:10.641Z,17.52
2022-08-01T00:02:39.766Z,17.47
2022-08-01T00:05:09.274Z,17.46
2022-08-01T00:07:37.442Z,17.50
2022-08-01T00:10:09.244Z,17.43
2022-08-01T00:12:37.481Z,17.40
2022-08-01T00:15:06.489Z,17.40
2022-08-01T00:17:34.370Z,17.39
2022-08-01T00:20:03.312Z,17.43
2022-08-01T00:22:32.527Z,17.46
2022-08-01T00:25:00.806Z,17.43
2022-08-01T00:27:30.273Z,17.39
2022-08-01T00:30:14.013Z,17.41
2022-08-01T00:32:43.177Z,17.38
2022-08-01T00:35:11.724Z,17.34
2022-08-01T00:37:39.706Z,17.36
2022-08-01T00:40:09.328Z,17.32
2022-08-01T00:42:43.330Z,17.38
2022-08-01T00:45:12.323Z,17.33
2022-08-01T00:47:40.838Z,17.31
2022-08-01T00:50:11.082Z,17.29
2022-08-01T00:52:41.411Z,17.35
2022-08-01T00:55:13.074Z,17.38
2022-08-01T00:58:03.184Z,17.37
2022-08-01T01:00:44.833Z,17.38
2022-08-01T01:03:43.548Z,17.33
2022-08-01T01:06:43.999Z,17.33
2022-08-01T01:09:26.064Z,17.27
2022-08-01T01:12:06.165Z,17.33
2022-08-01T01:14:47.814Z,17.31
2022-08-01T01:17:49.735Z,17.32
2022-08-01T01:20:10.305Z,17.28
2022-08-01T01:22:53.052Z,17.34
2022-08-01T01:25:41.864Z,17.34
2022-08-01T01:28:22.551Z,17.28
2022-08-01T01:30:55.629Z,17.22
2022-08-01T01:33:26.149Z,17.23
2022-08-01T01:36:00.244Z,17.21
2022-08-01T01:38:44.063Z,17.31
2022-08-01T01:41:16.367Z,17.30
2022-08-01T01:43:45.978Z,17.28
2022-08-01T01:46:23.529Z,17.24
2022-08-01T01:48:59.224Z,17.28
2022-08-01T01:51:39.683Z,17.32
2022-08-01T01:54:10.546Z,17.20
2022-08-01T01:56:49.588Z,17.21
2022-08-01T01:59:25.630Z,17.20
2022-08-01T02:02:08.729Z,17.19
2022-08-01T02:04:40.016Z,17.22
2022-08-01T02:07:11.410Z,17.18
2022-08-01T02:09:43.848Z,17.08
2022-08-01T02:12:13.499Z,17.04
2022-08-01T02:14:46.003Z,17.06
2022-08-01T02:17:19.639Z,16.96
2022-08-01T02:19:47.892Z,16.91
2022-08-01T02:22:22.121Z,16.84
2022-08-01T02:24:54.620Z,16.78
2022-08-01T02:27:26.988Z,16.77
2022-08-01T02:30:00.476Z,16.81
2022-08-01T02:32:34.148Z,16.70
2022-08-01T02:35:03.543Z,16.73
2022-08-01T02:37:35.936Z,16.66
2022-08-01T02:40:04.396Z,16.64
2022-08-01T02:42:34.382Z,16.62
2022-08-01T02:45:04.493Z,16.62
2022-08-01T02:47:36.519Z,16.72
2022-08-01T02:50:05.711Z,16.66
2022-08-01T02:52:35.049Z,16.65
2022-08-01T02:55:03.876Z,16.65
2022-08-01T02:57:52.159Z,16.57
2022-08-01T03:00:23.659Z,16.63
2022-08-01T03:03:00.210Z,16.57
2022-08-01T03:05:29.241Z,16.54
2022-08-01T03:08:01.453Z,16.55
2022-08-01T03:10:33.564Z,16.46
2022-08-01T03:13:03.604Z,16.52
2022-08-01T03:15:34.876Z,16.45
2022-08-01T03:18:08.539Z,16.48
2022-08-01T03:20:37.500Z,16.33
2022-08-01T03:23:08.025Z,16.37
2022-08-01T03:25:38.764Z,16.31
2022-08-01T03:28:09.079Z,16.37
2022-08-01T03:30:40.201Z,16.40
2022-08-01T03:33:10.000Z,16.27
2022-08-01T03:35:47.852Z,16.24
2022-08-01T03:38:21.108Z,16.23
2022-08-01T03:40:55.849Z,16.17
2022-08-01T03:43:36.376Z,16.16
2022-08-01T03:46:09.501Z,16.07
2022-08-01T03:48:43.112Z,16.15
2022-08-01T03:51:12.378Z,16.10
2022-08-01T03:53:44.739Z,16.15
2022-08-01T03:56:20.090Z,16.24
2022-08-01T03:58:50.134Z,16.13
2022-08-01T04:01:19.921Z,16.15
2022-08-01T04:03:49.407Z,16.19
2022-08-01T04:06:18.308Z,16.17
2022-08-01T04:08:56.452Z,16.20
2022-08-01T04:11:26.835Z,16.17
2022-08-01T04:13:55.710Z,16.22
2022-08-01T04:16:25.860Z,16.14
2022-08-01T04:18:55.243Z,16.13
2022-08-01T04:21:28.959Z,16.11
2022-08-01T04:24:00.110Z,16.10
2022-08-01T04:26:29.624Z,16.09
2022-08-01T04:28:59.110Z,16.13
2022-08-01T04:31:31.116Z,16.11
2022-08-01T04:34:06.100Z,16.10
2022-08-01T04:36:35.400Z,16.01
2022-08-01T04:39:06.764Z,15.98
2022-08-01T04:41:37.472Z,16.16
2022-08-01T04:44:06.573Z,16.12
2022-08-01T04:46:37.846Z,16.12
2022-08-01T04:49:10.142Z,16.04
2022-08-01T04:51:38.164Z,16.10
2022-08-01T04:54:08.405Z,16.08
2022-08-01T04:56:36.481Z,16.09
2022-08-01T04:59:22.571Z,16.19
2022-08-01T05:01:51.868Z,16.21
2022-08-01T05:04:21.588Z,16.13
2022-08-01T05:06:49.823Z,16.20
2022-08-01T05:09:18.302Z,16.23
2022-08-01T05:11:46.327Z,16.23
2022-08-01T05:14:16.728Z,16.24
2022-08-01T05:16:47.675Z,16.20
2022-08-01T05:19:16.340Z,16.20
2022-08-01T05:21:46.869Z,16.19
2022-08-01T05:24:14.975Z,16.30
2022-08-01T05:26:52.441Z,16.37
2022-08-01T05:29:20.879Z,16.41
2022-08-01T05:31:51.105Z,16.30
2022-08-01T05:34:19.737Z,16.34
2022-08-01T05:36:52.918Z,16.24
2022-08-01T05:39:27.728Z,16.29
2022-08-01T05:41:55.929Z,16.24
2022-08-01T05:44:25.221Z,16.17
2022-08-01T05:46:55.351Z,16.13
2022-08-01T05:49:25.936Z,16.08
2022-08-01T05:51:55.943Z,16.19
2022-08-01T05:54:24.147Z,16.37
2022-08-01T05:56:53.400Z,16.24
2022-08-01T05:59:22.486Z,16.19
2022-08-01T06:01:51.619Z,16.38
2022-08-01T06:04:19.746Z,16.31
2022-08-01T06:06:47.832Z,16.37
2022-08-01T06:09:17.540Z,16.49
2022-08-01T06:11:45.893Z,16.44
2022-08-01T06:14:14.964Z,16.45
2022-08-01T06:16:46.248Z,16.43
2022-08-01T06:19:14.566Z,16.38
2022-08-01T06:21:42.396Z,16.42
2022-08-01T06:24:18.950Z,16.37
2022-08-01T06:26:52.347Z,16.33
2022-08-01T06:29:35.901Z,16.48
2022-08-01T06:32:04.346Z,16.46
2022-08-01T06:34:34.290Z,16.16
2022-08-01T06:37:06.266Z,16.22
2022-08-01T06:39:38.414Z,15.94
2022-08-01T06:42:08.581Z,15.97
2022-08-01T06:44:39.284Z,16.36
2022-08-01T06:47:07.254Z,16.12
2022-08-01T06:49:41.201Z,16.23
2022-08-01T06:52:11.399Z,16.17
2022-08-01T06:54:41.170Z,16.32
2022-08-01T06:57:10.283Z,16.09
2022-08-01T06:59:40.625Z,16.11
2022-08-01T07:02:21.499Z,16.21
2022-08-01T07:04:51.605Z,16.13
2022-08-01T07:07:27.569Z,16.03
2022-08-01T07:10:06.988Z,16.07
2022-08-01T07:12:37.631Z,16.10
2022-08-01T07:15:12.391Z,16.00
2022-08-01T07:17:41.043Z,16.32
2022-08-01T07:20:51.119Z,16.36
2022-08-01T07:23:40.180Z,16.61
2022-08-01T07:26:17.238Z,16.90
2022-08-01T07:29:10.146Z,17.14
2022-08-01T07:31:49.581Z,16.92
2022-08-01T07:34:28.966Z,17.13
2022-08-01T07:37:08.926Z,17.46
2022-08-01T07:39:44.787Z,17.30
2022-08-01T07:42:22.823Z,17.39
2022-08-01T07:44:50.939Z,17.65
2022-08-01T07:47:37.708Z,17.62
2022-08-01T07:50:16.918Z,17.74
2022-08-01T07:52:49.718Z,18.19
2022-08-01T07:58:14.786Z,18.50
2022-08-01T08:00:43.203Z,19.31
2022-08-01T08:03:11.512Z,19.94
2022-08-01T08:05:58.443Z,20.01
2022-08-01T08:08:31.115Z,20.63
2022-08-01T08:10:59.314Z,21.04
2022-08-01T08:13:28.851Z,21.42
2022-08-01T08:15:57.116Z,22.24
2022-08-01T08:18:26.370Z,23.10
2022-08-01T08:20:54.839Z,22.21
2022-08-01T08:23:42.596Z,21.27
2022-08-01T08:26:12.111Z,21.59
2022-08-01T08:28:41.858Z,21.84
2022-08-01T08:31:50.617Z,21.37
2022-08-01T08:33:58.616Z,21.61
2022-08-01T08:36:30.851Z,21.22
2022-08-01T08:39:03.332Z,21.82
2022-08-01T08:41:36.917Z,22.54
2022-08-01T08:44:10.273Z,21.34
2022-08-01T08:46:43.545Z,22.28
2022-08-01T08:49:13.689Z,21.90
2022-08-01T08:51:44.359Z,22.12
2022-08-01T08:54:14.823Z,22.39
2022-08-01T08:56:44.047Z,23.04
2022-08-01T08:59:15.781Z,23.60
2022-08-01T09:01:44.614Z,23.46
2022-08-01T09:04:14.150Z,23.32
2022-08-01T09:06:43.137Z,23.43
2022-08-01T09:09:13.223Z,22.84
2022-08-01T09:11:42.152Z,23.03
2022-08-01T09:14:12.658Z,22.54
2022-08-01T09:16:48.809Z,22.11
2022-08-01T09:19:39.882Z,22.95
2022-08-01T09:22:13.250Z,22.38
2022-08-01T09:24:44.350Z,21.73
2022-08-01T09:27:22.053Z,22.53
2022-08-01T09:30:01.162Z,22.70
2022-08-01T09:32:36.824Z,21.97
2022-08-01T09:35:30.239Z,22.56
2022-08-01T09:38:21.032Z,23.48
2022-08-01T09:40:51.276Z,24.36
2022-08-01T09:43:20.494Z,24.36
2022-08-01T09:45:50.767Z,24.20
2022-08-01T09:48:28.672Z,22.69
2022-08-01T09:51:09.474Z,21.92
2022-08-01T09:53:52.622Z,22.28
2022-08-01T09:56:23.096Z,21.97
2022-08-01T09:59:01.599Z,22.74
2022-08-01T10:01:36.860Z,22.97
2022-08-01T10:04:13.522Z,22.95
2022-08-01T10:06:45.461Z,23.05
2022-08-01T10:09:16.174Z,22.94
2022-08-01T10:11:45.497Z,23.96
2022-08-01T10:14:18.090Z,25.28
2022-08-01T10:16:53.142Z,25.09
2022-08-01T10:19:28.979Z,23.72
2022-08-01T10:22:00.336Z,24.85
2022-08-01T10:24:31.291Z,23.98
2022-08-01T10:27:08.362Z,24.72
2022-08-01T10:29:46.364Z,23.42
2022-08-01T10:32:19.045Z,23.76
2022-08-01T10:34:56.557Z,24.45
2022-08-01T10:37:31.540Z,24.39
2022-08-01T10:40:31.165Z,25.39
2022-08-01T10:43:11.179Z,24.80
2022-08-01T10:46:01.186Z,24.00
2022-08-01T10:48:45.883Z,24.53
2022-08-01T10:51:19.122Z,22.96
2022-08-01T10:53:54.812Z,22.48
2022-08-01T10:56:27.762Z,23.10
2022-08-01T10:59:06.606Z,24.08
2022-08-01T11:01:49.601Z,24.46
2022-08-01T11:04:49.136Z,24.22
2022-08-01T11:07:51.293Z,22.38
2022-08-01T11:10:27.037Z,22.87
2022-08-01T11:13:14.084Z,23.22
2022-08-01T11:22:42.775Z,23.42
2022-08-01T11:26:18.208Z,23.49
2022-08-01T11:29:22.104Z,23.66
2022-08-01T11:31:53.204Z,23.08
2022-08-01T11:34:54.770Z,22.79
2022-08-01T11:37:30.497Z,23.34
2022-08-01T11:40:31.799Z,22.35
2022-08-01T11:43:19.966Z,23.24
2022-08-01T11:46:07.236Z,24.23
2022-08-01T11:48:44.421Z,24.84
2022-08-01T11:51:25.326Z,24.85
2022-08-01T11:54:04.043Z,24.17
2022-08-01T11:56:33.471Z,25.75
2022-08-01T11:59:02.030Z,24.76
2022-08-01T12:01:38.130Z,24.43
2022-08-01T12:04:12.327Z,25.16
2022-08-01T12:06:54.078Z,24.92
2022-08-01T12:09:25.875Z,25.52
2022-08-01T12:11:56.701Z,25.36
2022-08-01T12:14:29.938Z,25.22
2022-08-01T12:17:04.417Z,25.65
2022-08-01T12:19:33.627Z,23.58
2022-08-01T12:25:31.705Z,25.00
2022-08-01T12:28:06.522Z,25.37
2022-08-01T12:30:37.323Z,25.71
2022-08-01T12:33:20.618Z,26.34
2022-08-01T12:35:49.812Z,25.64
2022-08-01T12:38:19.928Z,24.76
2022-08-01T12:40:53.397Z,24.79
2022-08-01T12:43:28.581Z,24.60
2022-08-01T12:46:00.412Z,24.59
2022-08-01T12:48:33.050Z,23.93
2022-08-01T12:51:03.375Z,24.63
2022-08-01T12:53:40.665Z,24.78
2022-08-01T12:56:10.594Z,25.97
2022-08-01T13:01:37.094Z,25.89
2022-08-01T13:04:07.669Z,27.35
2022-08-01T13:06:41.320Z,25.97
2022-08-01T13:09:14.410Z,26.52
2022-08-01T13:12:02.853Z,26.89
2022-08-01T13:14:41.662Z,27.11
2022-08-01T13:21:14.578Z,26.15
2022-08-01T13:24:08.706Z,25.43
2022-08-01T13:26:48.522Z,27.42
2022-08-01T13:29:19.996Z,26.81
2022-08-01T13:32:32.529Z,27.78
2022-08-01T13:35:11.722Z,28.70
2022-08-01T13:37:46.730Z,27.25
2022-08-01T13:40:30.384Z,27.40
2022-08-01T13:42:59.009Z,26.91
2022-08-01T13:45:33.486Z,27.26
2022-08-01T13:48:12.020Z,26.66
2022-08-01T13:51:07.331Z,25.97
2022-08-01T13:53:39.005Z,24.51
2022-08-01T13:56:08.171Z,24.71
2022-08-01T13:58:37.678Z,24.62
2022-08-01T14:01:07.423Z,24.44
2022-08-01T14:03:35.699Z,25.09
2022-08-01T14:06:07.193Z,26.00
2022-08-01T14:08:35.751Z,25.27
2022-08-01T14:11:11.855Z,27.15
2022-08-01T14:13:50.704Z,27.35
2022-08-01T14:16:19.482Z,27.50
2022-08-01T14:18:52.940Z,26.96
2022-08-01T14:21:27.501Z,27.60
2022-08-01T14:23:59.018Z,27.56
2022-08-01T14:27:03.463Z,25.96
2022-08-01T14:30:02.798Z,26.73
2022-08-01T14:32:30.357Z,28.05
2022-08-01T14:35:04.262Z,26.83
2022-08-01T14:37:38.041Z,26.77
2022-08-01T14:40:23.875Z,26.77
2022-08-01T14:42:56.395Z,26.49
2022-08-01T14:45:28.902Z,26.28
2022-08-01T14:47:57.858Z,24.82
2022-08-01T14:53:28.007Z,27.12
2022-08-01T14:55:56.687Z,27.67
2022-08-01T14:58:31.214Z,27.82
2022-08-01T15:01:03.463Z,27.45
2022-08-01T15:03:32.802Z,27.61
2022-08-01T15:06:26.691Z,27.92
2022-08-01T15:11:49.508Z,27.43
2022-08-01T15:14:37.008Z,26.98
2022-08-01T15:17:12.920Z,28.32
2022-08-01T15:19:43.670Z,27.82
2022-08-01T15:22:12.788Z,29.06
2022-08-01T15:24:42.023Z,26.93
2022-08-01T15:27:10.701Z,28.39
2022-08-01T15:29:40.472Z,28.81
2022-08-01T15:32:09.751Z,27.28
2022-08-01T15:34:39.178Z,28.49
2022-08-01T15:37:33.979Z,27.98
2022-08-01T15:40:26.380Z,27.03
2022-08-01T15:43:06.301Z,26.83
2022-08-01T15:45:48.355Z,27.62
2022-08-01T15:48:19.228Z,27.96
2022-08-01T15:51:02.174Z,28.70
2022-08-01T15:53:31.560Z,26.86
2022-08-01T15:56:22.039Z,27.59
2022-08-01T15:59:04.057Z,26.23
2022-08-01T16:01:43.159Z,26.10
2022-08-01T16:04:16.853Z,25.70
2022-08-01T16:06:52.707Z,25.74
2022-08-01T16:09:24.622Z,26.53
2022-08-01T16:12:00.567Z,26.96
2022-08-01T16:14:30.895Z,26.53
2022-08-01T16:17:00.273Z,25.99
2022-08-01T16:19:28.334Z,25.34
2022-08-01T16:21:56.603Z,25.40
2022-08-01T16:24:29.119Z,25.84
2022-08-01T16:26:57.457Z,26.31
2022-08-01T16:29:30.819Z,25.18
2022-08-01T16:32:17.014Z,25.33
2022-08-01T16:34:48.722Z,25.13
2022-08-01T16:37:16.769Z,24.96
2022-08-01T16:39:45.603Z,25.31
2022-08-01T16:42:32.237Z,25.78
2022-08-01T16:45:04.062Z,25.33
2022-08-01T16:47:43.999Z,24.42
2022-08-01T16:50:14.572Z,24.09
2022-08-01T16:52:45.315Z,24.65
2022-08-01T16:55:21.147Z,24.91
2022-08-01T16:57:49.548Z,24.86
2022-08-01T17:00:22.676Z,24.79
2022-08-01T17:02:54.426Z,25.83
2022-08-01T17:05:26.409Z,25.86
2022-08-01T17:07:55.607Z,25.95
2022-08-01T17:10:23.772Z,24.66
2022-08-01T17:12:53.044Z,24.78
2022-08-01T17:15:21.538Z,24.65
2022-08-01T17:17:56.524Z,24.59
2022-08-01T17:20:27.672Z,24.73
2022-08-01T17:22:56.335Z,23.98
2022-08-01T17:25:26.851Z,23.39
2022-08-01T17:27:57.460Z,24.42
2022-08-01T17:30:28.013Z,24.14
2022-08-01T17:32:59.705Z,23.78
2022-08-01T17:35:33.772Z,23.83
2022-08-01T17:40:48.238Z,24.45
2022-08-01T17:43:21.694Z,24.35
2022-08-01T17:45:55.905Z,23.84
2022-08-01T17:48:29.689Z,23.25
2022-08-01T17:51:06.665Z,23.00
2022-08-01T17:53:36.458Z,22.61
2022-08-01T17:56:08.331Z,22.81
2022-08-01T17:58:50.970Z,22.65
2022-08-01T18:01:22.180Z,22.72
2022-08-01T18:03:59.467Z,22.08
2022-08-01T18:06:35.941Z,22.10
2022-08-01T18:09:16.712Z,22.11
2022-08-01T18:11:52.223Z,22.66
2022-08-01T18:14:47.946Z,21.69
2022-08-01T18:17:46.854Z,21.99
2022-08-01T18:20:26.097Z,21.26
2022-08-01T18:23:15.764Z,21.46
2022-08-01T18:28:54.319Z,21.36
2022-08-01T18:31:27.977Z,21.34
2022-08-01T18:34:01.599Z,20.84
2022-08-01T18:36:58.877Z,20.63
2022-08-01T18:50:47.584Z,18.80
2022-08-01T18:55:53.674Z,17.82
2022-08-01T19:10:25.503Z,16.42
2022-08-01T19:13:05.226Z,16.30
2022-08-01T19:15:33.544Z,16.20
2022-08-01T19:18:20.009Z,15.99
2022-08-01T19:20:50.417Z,15.78
2022-08-01T19:23:39.342Z,15.66
2022-08-01T19:26:23.038Z,15.65
2022-08-01T19:29:02.170Z,15.39
2022-08-01T19:31:46.984Z,15.27
2022-08-01T19:34:19.828Z,14.93
2022-08-01T19:37:02.623Z,14.93
2022-08-01T19:39:31.833Z,14.96
2022-08-01T19:42:00.424Z,14.75
2022-08-01T19:44:32.185Z,14.61
2022-08-01T19:50:39.921Z,14.33
2022-08-01T20:06:59.759Z,14.17
2022-08-01T20:12:17.198Z,13.41
2022-08-01T20:14:49.989Z,13.61
2022-08-01T20:17:20.099Z,13.59
2022-08-01T20:19:49.387Z,13.85
2022-08-01T20:22:20.257Z,13.55
2022-08-01T20:24:59.183Z,13.66
2022-08-01T20:27:29.634Z,13.44
2022-08-01T20:30:03.314Z,13.47
2022-08-01T20:32:40.395Z,13.45
2022-08-01T20:35:10.705Z,13.20
2022-08-01T20:38:06.297Z,12.93
2022-08-01T20:40:37.224Z,13.10
2022-08-01T20:43:09.410Z,13.02
2022-08-01T20:45:38.552Z,13.10
2022-08-01T20:48:10.180Z,12.77
2022-08-01T20:50:58.618Z,12.80
2022-08-01T20:53:29.722Z,12.92
2022-08-01T20:56:05.187Z,12.80
2022-08-01T20:58:45.062Z,12.90
2022-08-01T21:01:22.800Z,12.49
2022-08-01T21:04:10.682Z,12.46
2022-08-01T21:06:45.214Z,12.28
2022-08-01T21:09:20.382Z,12.16
2022-08-01T21:11:52.999Z,12.22
2022-08-01T21:14:22.585Z,12.39
2022-08-01T21:17:00.963Z,12.41
2022-08-01T21:19:36.912Z,12.31
2022-08-01T21:22:12.356Z,11.94
2022-08-01T21:24:58.382Z,11.47
2022-08-01T21:27:33.624Z,11.33
2022-08-01T21:30:04.939Z,11.01
2022-08-01T21:32:37.834Z,11.05
2022-08-01T21:35:16.710Z,10.84
2022-08-01T21:37:52.543Z,10.64
2022-08-01T21:40:22.327Z,10.69
2022-08-01T21:42:53.732Z,11.36
2022-08-01T21:45:24.808Z,11.63
2022-08-01T21:47:56.360Z,11.86
2022-08-01T21:50:25.125Z,11.48
2022-08-01T21:53:05.681Z,11.43
2022-08-01T21:55:51.543Z,11.55
2022-08-01T21:58:35.923Z,11.66
2022-08-01T22:01:08.637Z,11.66
2022-08-01T22:03:47.018Z,11.76
2022-08-01T22:06:19.002Z,11.87
2022-08-01T22:08:52.382Z,11.32
2022-08-01T22:11:24.664Z,10.89
2022-08-01T22:14:00.121Z,11.38
2022-08-01T22:16:32.826Z,11.44
2022-08-01T22:19:04.385Z,11.46
2022-08-01T22:21:37.142Z,11.72
2022-08-01T22:24:08.239Z,11.76
2022-08-01T22:26:40.152Z,11.15
2022-08-01T22:29:11.263Z,11.34
2022-08-01T22:31:40.512Z,11.51
2022-08-01T22:34:09.944Z,11.61
2022-08-01T22:36:38.582Z,11.62
2022-08-01T22:39:07.113Z,10.93
2022-08-01T22:42:01.556Z,10.85
2022-08-01T22:44:47.659Z,10.55
2022-08-01T22:47:27.542Z,10.84
2022-08-01T22:50:04.465Z,10.90
2022-08-01T22:52:42.543Z,11.23
2022-08-01T22:55:13.002Z,11.14
2022-08-01T22:57:50.276Z,11.14
2022-08-01T23:00:21.247Z,11.39
2022-08-01T23:02:56.634Z,11.30
2022-08-01T23:05:28.095Z,11.61
2022-08-01T23:08:01.588Z,11.46
2022-08-01T23:10:30.724Z,11.48
2022-08-01T23:13:00.499Z,11.47
2022-08-01T23:15:32.863Z,11.49
2022-08-01T23:18:05.013Z,11.61
2022-08-01T23:20:36.029Z,11.25
2022-08-01T23:23:05.750Z,11.50
2022-08-01T23:25:35.160Z,11.58
2022-08-01T23:28:06.129Z,11.49
2022-08-01T23:30:37.153Z,11.55
2022-08-01T23:33:06.504Z,11.52
2022-08-01T23:35:39.046Z,11.60
2022-08-01T23:38:07.673Z,11.52
2022-08-01T23:40:36.395Z,11.59
2022-08-01T23:43:05.927Z,11.58
2022-08-01T23:46:03.652Z,11.38
2022-08-01T23:48:34.818Z,11.38
2022-08-01T23:51:04.254Z,11.34
2022-08-01T23:53:33.801Z,11.31
2022-08-01T23:56:04.435Z,11.32
2022-08-01T23:58:33.514Z,11.45
